Time;durP1;ratioP1;P1;durP2;ratioP2;P2;SDS_P1;SDS_P2;PMS_P1;PMS_P2;Temp;Humidity;BMP_temperature;BMP_pressure;BME280_temperature;BME280_humidity;BME280_pressure;Samples;Min_cycle;Max_cycle;Signal;HPM_P1;HPM_P2
2023/11/22 00:00:43;;;;;;;31.15;28.92;;;11.50;99.90;;;;;;4990165;28;20030;-73
2023/11/22 00:03:09;;;;;;;31.70;29.60;;;11.50;99.90;;;;;;4991018;28;20026;-72
2023/11/22 00:05:35;;;;;;;21.95;20.25;;;11.50;99.90;;;;;;4991737;28;20046;-72
2023/11/22 00:08:01;;;;;;;22.10;20.08;;;11.50;99.90;;;;;;4989385;28;20042;-75
2023/11/22 00:10:28;;;;;;;29.63;27.42;;;11.50;99.90;;;;;;4974132;28;20047;-74
2023/11/22 00:12:54;;;;;;;26.90;24.95;;;11.40;99.90;;;;;;4991082;28;20411;-74
2023/11/22 00:15:20;;;;;;;24.38;22.67;;;11.50;99.90;;;;;;4990965;28;20182;-74
2023/11/22 00:17:47;;;;;;;22.05;20.45;;;11.50;99.90;;;;;;4989608;28;20026;-74
2023/11/22 00:20:13;;;;;;;25.60;23.80;;;11.50;99.90;;;;;;4991810;28;20039;-74
2023/11/22 00:22:40;;;;;;;32.17;30.10;;;11.60;99.90;;;;;;4988627;28;20030;-74
2023/11/22 00:25:06;;;;;;;24.73;22.83;;;11.60;99.90;;;;;;4990381;28;20057;-74
2023/11/22 00:27:32;;;;;;;29.35;27.38;;;11.60;99.90;;;;;;4991341;28;20034;-74
2023/11/22 00:29:59;;;;;;;23.10;21.38;;;11.60;99.90;;;;;;4991817;28;20064;-74
2023/11/22 00:32:25;;;;;;;25.13;23.27;;;11.60;99.90;;;;;;4990349;28;20049;-74
2023/11/22 00:34:52;;;;;;;26.38;24.67;;;11.50;99.90;;;;;;4991415;28;20034;-74
2023/11/22 00:37:18;;;;;;;26.60;24.73;;;11.60;99.90;;;;;;4993893;28;20030;-74
2023/11/22 00:39:44;;;;;;;23.08;21.30;;;11.60;99.90;;;;;;4995620;28;20034;-73
2023/11/22 00:42:11;;;;;;;29.67;27.50;;;11.60;99.90;;;;;;4994223;28;20054;-70
2023/11/22 00:44:37;;;;;;;25.35;23.45;;;11.50;99.90;;;;;;4995170;28;20098;-70
2023/11/22 00:47:03;;;;;;;23.42;21.73;;;11.60;99.90;;;;;;4994709;28;20053;-70
2023/11/22 00:49:29;;;;;;;23.15;21.48;;;11.50;99.90;;;;;;4979856;28;20035;-70
2023/11/22 00:51:56;;;;;;;24.92;23.02;;;11.50;99.90;;;;;;4992980;28;20049;-70
2023/11/22 00:54:22;;;;;;;29.02;27.02;;;11.50;99.90;;;;;;4988550;28;20046;-70
2023/11/22 00:56:48;;;;;;;26.10;24.35;;;11.50;99.90;;;;;;4990624;28;20038;-70
2023/11/22 00:59:14;;;;;;;28.70;26.70;;;11.50;99.90;;;;;;4995341;28;20369;-70
2023/11/22 01:01:41;;;;;;;29.58;27.75;;;11.40;99.90;;;;;;4994865;28;20045;-71
2023/11/22 01:04:07;;;;;;;19.77;18.38;;;11.40;99.90;;;;;;4994683;28;20039;-70
2023/11/22 01:06:34;;;;;;;22.05;20.45;;;11.50;99.90;;;;;;4995377;28;20030;-70
2023/11/22 01:09:00;;;;;;;30.33;28.35;;;11.50;99.90;;;;;;4990994;28;20037;-70
2023/11/22 01:11:26;;;;;;;33.85;31.38;;;11.50;99.90;;;;;;4996421;28;20045;-70
2023/11/22 01:13:52;;;;;;;36.83;34.50;;;11.50;99.90;;;;;;5006198;28;20038;-70
2023/11/22 01:16:18;;;;;;;35.58;33.28;;;11.50;99.90;;;;;;4993806;28;20110;-70
2023/11/22 01:18:46;;;;;;;23.77;21.92;;;11.50;99.90;;;;;;4995119;28;20038;-70
2023/11/22 01:21:12;;;;;;;25.58;23.63;;;11.50;99.90;;;;;;4995413;28;20483;-70
2023/11/22 01:23:38;;;;;;;22.08;20.58;;;11.50;99.90;;;;;;4975845;28;20420;-70
2023/11/22 01:26:05;;;;;;;26.33;24.50;;;11.40;99.90;;;;;;4991918;28;20035;-70
2023/11/22 01:28:34;;;;;;;21.42;20.05;;;11.50;99.90;;;;;;4994390;28;20030;-70
2023/11/22 01:31:02;;;;;;;29.33;27.55;;;11.50;99.90;;;;;;4982901;28;20049;-71
2023/11/22 01:33:29;;;;;;;30.33;28.20;;;11.50;99.90;;;;;;4995297;28;20019;-70
2023/11/22 01:35:56;;;;;;;26.35;24.58;;;11.50;99.90;;;;;;4981838;28;20046;-70
2023/11/22 01:38:23;;;;;;;26.05;24.25;;;11.60;99.90;;;;;;4994589;28;20383;-70
2023/11/22 01:40:51;;;;;;;31.00;29.02;;;11.60;99.90;;;;;;4993643;28;20384;-70
2023/11/22 01:43:17;;;;;;;32.58;30.30;;;11.50;99.90;;;;;;4988559;28;20038;-73
2023/11/22 01:45:44;;;;;;;28.60;26.73;;;11.50;99.90;;;;;;4977363;28;20105;-73
2023/11/22 01:48:11;;;;;;;25.13;23.33;;;11.50;99.90;;;;;;4991818;28;20041;-74
2023/11/22 01:50:40;;;;;;;27.70;25.70;;;11.40;99.90;;;;;;4994235;28;20383;-74
2023/11/22 01:53:07;;;;;;;21.98;20.35;;;11.40;99.90;;;;;;4978885;28;20050;-74
2023/11/22 01:55:34;;;;;;;22.70;21.20;;;11.40;99.90;;;;;;4991633;28;20102;-74
2023/11/22 01:58:01;;;;;;;30.30;28.25;;;11.40;99.90;;;;;;4968367;28;20053;-74
2023/11/22 02:00:28;;;;;;;26.70;24.92;;;11.40;99.90;;;;;;4992052;28;20042;-74
2023/11/22 02:02:54;;;;;;;24.25;22.60;;;11.50;99.90;;;;;;4973526;28;20043;-74
2023/11/22 02:05:20;;;;;;;26.95;25.10;;;11.50;99.90;;;;;;4975221;28;20030;-74
2023/11/22 02:07:46;;;;;;;27.88;25.73;;;11.40;99.90;;;;;;4992001;28;20037;-74
2023/11/22 02:10:12;;;;;;;23.23;21.52;;;11.40;99.90;;;;;;4993628;28;20037;-74
2023/11/22 02:12:38;;;;;;;23.98;22.27;;;11.40;99.90;;;;;;4992561;28;20038;-74
2023/11/22 02:15:05;;;;;;;23.77;22.23;;;11.50;99.90;;;;;;4992944;28;20035;-74
2023/11/22 02:17:34;;;;;;;23.35;21.73;;;11.40;99.90;;;;;;4993175;28;20464;-74
2023/11/22 02:20:00;;;;;;;28.38;26.45;;;11.50;99.90;;;;;;4992291;28;20030;-74
2023/11/22 02:22:26;;;;;;;27.45;25.75;;;11.50;99.90;;;;;;4989823;28;20022;-73
2023/11/22 02:24:52;;;;;;;25.27;23.65;;;11.40;99.90;;;;;;4993583;28;20041;-74
2023/11/22 02:27:18;;;;;;;23.35;21.63;;;11.30;99.90;;;;;;4993135;28;20042;-74
2023/11/22 02:29:45;;;;;;;25.45;23.52;;;11.40;99.90;;;;;;4992543;28;20033;-74
2023/11/22 02:32:11;;;;;;;24.85;23.33;;;11.40;99.90;;;;;;4992876;28;20400;-74
2023/11/22 02:34:37;;;;;;;23.38;21.27;;;11.30;99.90;;;;;;4991700;28;20038;-74
2023/11/22 02:37:04;;;;;;;22.05;20.65;;;11.30;99.90;;;;;;4991840;28;20399;-73
2023/11/22 02:39:41;;;;;;;22.98;21.48;;;11.30;99.90;;;;;;4993263;28;20486;-74
2023/11/22 02:42:08;;;;;;;23.50;22.00;;;11.30;99.90;;;;;;4989655;28;20041;-74
2023/11/22 02:44:34;;;;;;;22.80;21.15;;;11.30;99.90;;;;;;4991986;28;20030;-73
2023/11/22 02:47:00;;;;;;;19.20;17.83;;;11.30;99.90;;;;;;4990197;28;20042;-74
2023/11/22 02:49:26;;;;;;;24.42;22.92;;;11.30;99.90;;;;;;4993978;28;20384;-73
2023/11/22 02:51:53;;;;;;;23.42;21.77;;;11.30;99.90;;;;;;4991920;28;20098;-70
2023/11/22 02:54:19;;;;;;;20.35;19.05;;;11.30;99.90;;;;;;4991884;28;20365;-70
2023/11/22 02:56:45;;;;;;;20.17;18.67;;;11.30;99.90;;;;;;4992204;28;20041;-70
2023/11/22 02:59:13;;;;;;;22.95;21.25;;;11.30;99.90;;;;;;4991850;28;20490;-70
2023/11/22 03:01:42;;;;;;;21.00;19.50;;;11.30;99.90;;;;;;4991281;28;20046;-70
2023/11/22 03:04:08;;;;;;;30.27;28.40;;;11.30;99.90;;;;;;4993111;28;20431;-70
2023/11/22 03:06:36;;;;;;;30.05;28.35;;;11.30;99.90;;;;;;4991623;28;20058;-71
2023/11/22 03:09:02;;;;;;;34.40;32.35;;;11.30;99.90;;;;;;4992661;28;20038;-70
2023/11/22 03:11:31;;;;;;;37.80;35.67;;;11.30;99.90;;;;;;4992491;28;20046;-70
2023/11/22 03:13:58;;;;;;;31.38;29.33;;;11.30;99.90;;;;;;4993879;28;20054;-70
2023/11/22 03:16:24;;;;;;;37.67;35.42;;;11.30;99.90;;;;;;4990710;28;20042;-70
2023/11/22 03:18:51;;;;;;;34.25;31.85;;;11.30;99.90;;;;;;4992569;28;20056;-70
2023/11/22 03:21:17;;;;;;;42.25;39.97;;;11.30;99.90;;;;;;4991869;28;20034;-70
2023/11/22 03:23:43;;;;;;;30.15;28.45;;;11.30;99.90;;;;;;4991397;28;20053;-70
2023/11/22 03:26:09;;;;;;;33.25;31.38;;;11.30;99.90;;;;;;4992063;28;20051;-70
2023/11/22 03:28:35;;;;;;;21.23;20.05;;;11.30;99.90;;;;;;4992569;28;20046;-70
2023/11/22 03:31:02;;;;;;;22.20;20.77;;;11.40;99.90;;;;;;4990546;28;20030;-70
2023/11/22 03:33:28;;;;;;;19.63;18.52;;;11.40;99.90;;;;;;4992915;28;20353;-70
2023/11/22 03:35:54;;;;;;;22.95;21.45;;;11.40;99.90;;;;;;4992027;28;20033;-70
2023/11/22 03:38:21;;;;;;;22.40;21.20;;;11.40;99.90;;;;;;4992326;28;20475;-70
2023/11/22 03:40:47;;;;;;;24.38;22.73;;;11.40;99.90;;;;;;4990775;28;20030;-70
2023/11/22 03:43:13;;;;;;;26.50;25.02;;;11.40;99.90;;;;;;4992728;28;20399;-71
2023/11/22 03:45:40;;;;;;;26.45;24.63;;;11.40;99.90;;;;;;4990296;28;20038;-70
2023/11/22 03:48:06;;;;;;;27.70;25.95;;;11.40;99.90;;;;;;4991046;28;20506;-70
2023/11/22 03:50:32;;;;;;;21.90;20.50;;;11.40;99.90;;;;;;4990775;28;20045;-70
2023/11/22 03:52:58;;;;;;;29.95;28.13;;;11.40;99.90;;;;;;4992200;28;20034;-70
2023/11/22 03:55:24;;;;;;;30.20;28.52;;;11.40;99.90;;;;;;5006775;28;20030;-70
2023/11/22 03:57:50;;;;;;;43.92;41.30;;;11.30;99.90;;;;;;5002266;28;20034;-70
2023/11/22 04:00:19;;;;;;;28.15;26.60;;;11.30;99.90;;;;;;4990641;28;20037;-70
2023/11/22 04:02:45;;;;;;;41.53;39.08;;;11.40;99.90;;;;;;4990330;28;20046;-70
2023/11/22 04:05:12;;;;;;;40.38;37.97;;;11.30;99.90;;;;;;4990436;28;20065;-74
2023/11/22 04:07:39;;;;;;;34.50;32.50;;;11.40;99.90;;;;;;4990157;28;20391;-74
2023/11/22 04:10:06;;;;;;;45.33;42.97;;;11.40;99.90;;;;;;4993164;28;20470;-74
2023/11/22 04:12:32;;;;;;;32.88;31.05;;;11.40;99.90;;;;;;4995512;28;20038;-74
2023/11/22 04:14:58;;;;;;;32.55;30.40;;;11.40;99.90;;;;;;4997225;28;20373;-74
2023/11/22 04:17:24;;;;;;;30.52;28.67;;;11.40;99.90;;;;;;4993272;28;20041;-74
2023/11/22 04:19:50;;;;;;;30.30;28.60;;;11.40;99.90;;;;;;4995759;28;20502;-74
2023/11/22 04:22:16;;;;;;;26.52;24.92;;;11.30;99.90;;;;;;4994673;28;20030;-74
2023/11/22 04:24:42;;;;;;;27.30;25.52;;;11.30;99.90;;;;;;4995692;28;20550;-74
2023/11/22 04:27:08;;;;;;;24.90;23.33;;;11.30;99.90;;;;;;4995090;28;20057;-74
2023/11/22 04:29:34;;;;;;;33.95;32.03;;;11.30;99.90;;;;;;4995872;28;20030;-74
2023/11/22 04:32:00;;;;;;;32.50;30.33;;;11.30;99.90;;;;;;4995162;28;20042;-74
2023/11/22 04:34:27;;;;;;;32.33;30.45;;;11.30;99.90;;;;;;4994434;28;20041;-74
2023/11/22 04:36:53;;;;;;;30.63;28.73;;;11.30;99.90;;;;;;4996592;28;20042;-74
2023/11/22 04:39:19;;;;;;;35.05;33.10;;;11.30;99.90;;;;;;4995637;28;20471;-74
2023/11/22 04:41:45;;;;;;;31.13;29.00;;;11.30;99.90;;;;;;4995662;28;20045;-74
2023/11/22 04:44:11;;;;;;;28.63;26.70;;;11.20;99.90;;;;;;4997345;28;20038;-74
2023/11/22 04:46:38;;;;;;;21.67;20.00;;;11.20;99.90;;;;;;5008431;28;20050;-74
2023/11/22 04:49:04;;;;;;;20.20;18.95;;;11.30;99.90;;;;;;4993928;28;20038;-74
2023/11/22 04:51:32;;;;;;;22.70;21.13;;;11.30;99.90;;;;;;4992841;28;20038;-75
2023/11/22 04:53:58;;;;;;;20.27;19.02;;;11.20;99.90;;;;;;4995495;28;20486;-75
2023/11/22 04:56:24;;;;;;;23.50;21.90;;;11.30;99.90;;;;;;4995031;28;20034;-73
2023/11/22 04:58:50;;;;;;;21.50;20.00;;;11.30;99.90;;;;;;5012353;28;20026;-74
2023/11/22 05:01:16;;;;;;;24.35;22.73;;;11.30;99.90;;;;;;4994611;28;20411;-75
2023/11/22 05:03:42;;;;;;;24.85;23.20;;;11.20;99.90;;;;;;4994921;28;20038;-73
2023/11/22 05:06:08;;;;;;;28.13;26.27;;;11.20;99.90;;;;;;4994696;28;20065;-74
2023/11/22 05:08:35;;;;;;;23.35;21.73;;;11.20;99.90;;;;;;4993442;28;20051;-71
2023/11/22 05:11:01;;;;;;;22.02;20.13;;;11.20;99.90;;;;;;4993713;28;20379;-70
2023/11/22 05:13:27;;;;;;;20.48;19.23;;;11.20;99.90;;;;;;4994628;28;20109;-70
2023/11/22 05:15:53;;;;;;;33.20;30.92;;;11.20;99.90;;;;;;4994214;28;20030;-70
2023/11/22 05:18:19;;;;;;;25.05;23.35;;;11.10;99.90;;;;;;4993499;28;20490;-70
2023/11/22 05:20:48;;;;;;;22.65;21.13;;;11.10;99.90;;;;;;4993064;28;20035;-70
2023/11/22 05:23:14;;;;;;;21.42;19.77;;;11.10;99.90;;;;;;4992750;28;20043;-70
2023/11/22 05:25:40;;;;;;;24.30;22.60;;;11.20;99.90;;;;;;4993882;28;20042;-70
2023/11/22 05:28:06;;;;;;;25.52;23.70;;;11.20;99.90;;;;;;4994023;28;20053;-70
2023/11/22 05:30:32;;;;;;;21.42;19.83;;;11.30;99.90;;;;;;4993309;28;20042;-70
2023/11/22 05:32:58;;;;;;;25.77;23.90;;;11.30;99.90;;;;;;4994951;28;20026;-71
2023/11/22 05:35:24;;;;;;;22.80;20.75;;;11.30;99.90;;;;;;4993408;28;20500;-70
2023/11/22 05:37:50;;;;;;;27.20;25.30;;;11.20;99.90;;;;;;4992851;28;20033;-71
2023/11/22 05:40:17;;;;;;;21.95;20.38;;;11.20;99.90;;;;;;4993970;28;20038;-70
2023/11/22 05:42:44;;;;;;;20.13;18.63;;;11.20;99.90;;;;;;4994049;28;20038;-70
2023/11/22 05:45:10;;;;;;;29.98;27.80;;;11.20;99.90;;;;;;5013148;28;20034;-70
2023/11/22 05:47:36;;;;;;;23.98;22.33;;;11.10;99.90;;;;;;5009273;28;20042;-70
2023/11/22 05:50:02;;;;;;;26.13;24.33;;;11.10;99.90;;;;;;4994344;28;20467;-70
2023/11/22 05:52:28;;;;;;;24.90;23.05;;;11.10;99.90;;;;;;4994346;28;20045;-70
2023/11/22 05:54:56;;;;;;;20.83;19.35;;;11.20;99.90;;;;;;4994834;28;20038;-70
2023/11/22 05:57:22;;;;;;;17.58;16.08;;;11.20;99.90;;;;;;4993269;28;20034;-70
2023/11/22 05:59:48;;;;;;;20.75;19.02;;;11.20;99.90;;;;;;4994226;28;20041;-70
2023/11/22 06:02:14;;;;;;;25.27;23.33;;;11.20;99.90;;;;;;4987335;28;20115;-70
2023/11/22 06:04:40;;;;;;;22.85;21.23;;;11.10;99.90;;;;;;4989085;28;20026;-70
2023/11/22 06:07:06;;;;;;;23.35;21.60;;;11.10;99.90;;;;;;4993571;28;20054;-70
2023/11/22 06:09:33;;;;;;;22.38;20.48;;;11.10;99.90;;;;;;4994016;28;20482;-70
2023/11/22 06:11:59;;;;;;;24.70;22.67;;;11.10;99.90;;;;;;5004695;28;20546;-70
2023/11/22 06:14:26;;;;;;;22.30;20.38;;;11.10;99.90;;;;;;5014108;28;20030;-70
2023/11/22 06:16:52;;;;;;;25.30;23.33;;;11.20;99.90;;;;;;5013125;28;20476;-70
2023/11/22 06:19:18;;;;;;;24.35;22.95;;;11.10;99.90;;;;;;5003161;28;20053;-70
2023/11/22 06:21:45;;;;;;;20.92;19.33;;;11.10;99.90;;;;;;4993961;28;20502;-70
2023/11/22 06:24:15;;;;;;;20.52;18.67;;;11.00;99.90;;;;;;4993954;28;20042;-69
2023/11/22 06:26:43;;;;;;;19.98;18.55;;;11.10;99.90;;;;;;5004912;28;20045;-74
2023/11/22 06:29:09;;;;;;;20.38;18.65;;;11.10;99.90;;;;;;5008375;28;20033;-73
2023/11/22 06:31:35;;;;;;;21.67;20.13;;;11.10;99.90;;;;;;4992574;28;20039;-74
2023/11/22 06:34:01;;;;;;;20.27;18.58;;;11.10;99.90;;;;;;4993278;28;20045;-74
2023/11/22 06:36:29;;;;;;;19.17;17.60;;;11.00;99.90;;;;;;4996758;28;20038;-74
2023/11/22 06:38:55;;;;;;;23.30;21.90;;;11.00;99.90;;;;;;5013787;28;20046;-73
2023/11/22 06:41:21;;;;;;;19.27;17.42;;;10.90;99.90;;;;;;5008555;28;20049;-74
2023/11/22 06:43:48;;;;;;;20.45;18.67;;;10.80;99.90;;;;;;4993958;28;20038;-74
2023/11/22 06:46:16;;;;;;;20.67;19.00;;;10.80;99.90;;;;;;4993442;28;20483;-74
2023/11/22 06:48:45;;;;;;;18.83;17.17;;;10.80;99.90;;;;;;4992410;28;20042;-73
2023/11/22 06:51:12;;;;;;;20.40;18.33;;;10.80;99.90;;;;;;4992387;28;20030;-74
2023/11/22 06:53:38;;;;;;;21.73;19.98;;;10.70;99.90;;;;;;4993167;28;20045;-74
2023/11/22 06:56:05;;;;;;;18.50;16.80;;;10.70;99.90;;;;;;4993606;28;20038;-74
2023/11/22 06:58:31;;;;;;;22.83;21.05;;;10.70;99.90;;;;;;4992478;28;20038;-74
2023/11/22 07:00:57;;;;;;;20.52;19.02;;;10.70;99.90;;;;;;4991995;28;20475;-74
2023/11/22 07:03:23;;;;;;;21.52;19.63;;;10.70;99.90;;;;;;4993604;28;20042;-74
2023/11/22 07:05:49;;;;;;;22.50;20.92;;;10.70;99.90;;;;;;4992223;28;20369;-74
2023/11/22 07:08:17;;;;;;;21.65;19.65;;;10.70;99.90;;;;;;4993288;28;20053;-74
2023/11/22 07:10:44;;;;;;;21.13;19.42;;;10.70;99.90;;;;;;4980596;28;20031;-74
2023/11/22 07:13:12;;;;;;;22.02;20.10;;;10.70;99.90;;;;;;4974444;28;20046;-73
2023/11/22 07:15:39;;;;;;;25.38;23.33;;;10.60;99.90;;;;;;4980687;28;20423;-74
2023/11/22 07:18:05;;;;;;;21.27;19.83;;;10.60;99.90;;;;;;4993381;28;20482;-74
2023/11/22 07:20:31;;;;;;;22.42;20.38;;;10.60;99.90;;;;;;4993435;28;20031;-73
2023/11/22 07:22:57;;;;;;;23.63;21.92;;;10.50;99.90;;;;;;4993165;28;20558;-74
2023/11/22 07:25:27;;;;;;;22.05;19.98;;;10.50;99.90;;;;;;4993210;28;20046;-74
2023/11/22 07:27:55;;;;;;;19.77;18.40;;;10.50;99.90;;;;;;4991681;28;20077;-70
2023/11/22 07:30:27;;;;;;;20.17;18.45;;;10.50;99.90;;;;;;4992446;28;20385;-69
2023/11/22 07:32:53;;;;;;;18.83;16.98;;;10.50;99.90;;;;;;4993273;28;20038;-70
2023/11/22 07:35:22;;;;;;;20.27;18.77;;;10.40;99.90;;;;;;4993175;28;20038;-70
2023/11/22 07:37:48;;;;;;;18.25;16.75;;;10.40;99.90;;;;;;4981488;28;20042;-72
2023/11/22 07:40:14;;;;;;;19.75;17.92;;;10.30;99.90;;;;;;4988946;28;20045;-70
2023/11/22 07:42:41;;;;;;;23.40;21.77;;;10.40;99.90;;;;;;4991826;28;20046;-71
2023/11/22 07:45:11;;;;;;;24.20;20.33;;;10.40;99.90;;;;;;4990362;28;20030;-69
2023/11/22 07:47:39;;;;;;;22.45;20.60;;;10.40;99.90;;;;;;4979487;28;20062;-69
2023/11/22 07:50:08;;;;;;;29.23;26.85;;;10.40;99.90;;;;;;4983219;28;20030;-69
2023/11/22 07:52:34;;;;;;;23.83;21.88;;;10.40;99.90;;;;;;4984384;28;20030;-69
2023/11/22 07:55:00;;;;;;;16.23;15.00;;;10.50;99.90;;;;;;4992710;28;20034;-69
2023/11/22 07:57:26;;;;;;;17.63;15.90;;;10.50;99.90;;;;;;4992560;28;20034;-69
2023/11/22 07:59:55;;;;;;;19.38;17.60;;;10.50;99.90;;;;;;4992821;28;20030;-69
2023/11/22 08:02:21;;;;;;;23.92;22.08;;;10.40;99.90;;;;;;4990443;28;20495;-69
2023/11/22 08:04:50;;;;;;;33.00;30.38;;;10.30;99.90;;;;;;4975158;28;20058;-69
2023/11/22 08:07:16;;;;;;;20.48;18.92;;;10.40;99.90;;;;;;4991150;28;20161;-69
2023/11/22 08:09:43;;;;;;;23.90;17.70;;;10.40;99.90;;;;;;4993060;28;20046;-70
2023/11/22 08:12:11;;;;;;;21.48;18.73;;;10.40;99.90;;;;;;4992619;28;20053;-70
2023/11/22 08:14:37;;;;;;;18.52;16.80;;;10.30;99.90;;;;;;4992689;28;20034;-70
2023/11/22 08:17:05;;;;;;;22.17;16.50;;;10.40;99.90;;;;;;4992253;28;20039;-70
2023/11/22 08:19:31;;;;;;;19.40;18.00;;;10.30;99.90;;;;;;4992855;28;20053;-71
2023/11/22 08:21:58;;;;;;;17.55;16.33;;;10.30;99.90;;;;;;4992121;28;20046;-70
2023/11/22 08:24:24;;;;;;;17.75;16.15;;;10.30;99.90;;;;;;4991427;28;20042;-70
2023/11/22 08:26:50;;;;;;;17.55;15.75;;;10.30;99.90;;;;;;4991170;28;20387;-70
2023/11/22 08:29:16;;;;;;;22.30;18.05;;;10.40;99.90;;;;;;4991477;28;20030;-70
2023/11/22 08:31:42;;;;;;;18.85;16.52;;;10.50;99.90;;;;;;4991154;28;20057;-70
2023/11/22 08:34:09;;;;;;;19.98;15.10;;;10.50;99.90;;;;;;4985052;28;20039;-70
2023/11/22 08:36:35;;;;;;;17.58;15.88;;;10.50;99.90;;;;;;4984472;28;20055;-74
2023/11/22 08:39:02;;;;;;;19.42;17.73;;;10.60;99.90;;;;;;4986609;28;20035;-74
2023/11/22 08:41:29;;;;;;;20.05;18.15;;;10.60;99.90;;;;;;4984959;28;20679;-75
2023/11/22 08:43:56;;;;;;;19.55;17.75;;;10.60;99.90;;;;;;4979936;28;20038;-74
2023/11/22 08:46:23;;;;;;;18.30;16.70;;;10.60;99.90;;;;;;4990598;28;20043;-73
2023/11/22 08:48:52;;;;;;;19.13;17.20;;;10.70;99.90;;;;;;4986381;28;20042;-74
2023/11/22 08:51:18;;;;;;;18.08;16.55;;;10.70;99.90;;;;;;5009935;28;20491;-73
2023/11/22 08:53:44;;;;;;;20.33;18.27;;;10.80;99.90;;;;;;5011914;28;20053;-73
2023/11/22 08:56:11;;;;;;;30.67;28.45;;;10.80;99.90;;;;;;5001870;28;20045;-73
2023/11/22 08:58:40;;;;;;;25.08;23.30;;;10.80;99.90;;;;;;4994845;28;20368;-73
2023/11/22 09:01:07;;;;;;;24.60;22.23;;;10.90;99.90;;;;;;4995042;28;20034;-73
2023/11/22 09:03:33;;;;;;;28.45;25.92;;;10.80;99.90;;;;;;4994468;28;20054;-73
2023/11/22 09:06:00;;;;;;;22.65;20.83;;;10.80;99.90;;;;;;4994191;28;20491;-74
2023/11/22 09:08:26;;;;;;;24.25;22.42;;;10.80;99.90;;;;;;4995913;28;20043;-73
2023/11/22 09:10:52;;;;;;;25.02;22.73;;;10.90;99.90;;;;;;4994422;28;20031;-73
2023/11/22 09:13:20;;;;;;;25.15;23.38;;;10.90;99.90;;;;;;4994296;28;20039;-72
2023/11/22 09:15:47;;;;;;;25.52;23.38;;;11.00;99.90;;;;;;4992125;28;20061;-73
2023/11/22 09:18:13;;;;;;;46.95;43.83;;;11.00;99.90;;;;;;4986508;28;20059;-74
2023/11/22 09:20:39;;;;;;;35.28;33.22;;;11.00;99.90;;;;;;4998845;28;20494;-75
2023/11/22 09:23:05;;;;;;;45.75;43.03;;;11.10;99.90;;;;;;4996757;28;20031;-79
2023/11/22 09:25:33;;;;;;;29.75;27.23;;;11.20;99.90;;;;;;4997359;28;20057;-75
2023/11/22 09:27:59;;;;;;;29.45;27.27;;;11.30;99.90;;;;;;5006061;28;20045;-74
2023/11/22 09:30:34;;;;;;;51.72;48.60;;;11.40;99.90;;;;;;4986505;28;20470;-74
2023/11/22 09:33:08;;;;;;;46.30;43.58;;;11.50;99.90;;;;;;4990888;28;20042;-74
2023/11/22 09:35:35;;;;;;;45.70;42.42;;;11.50;99.90;;;;;;4993368;28;20030;-74
2023/11/22 09:38:02;;;;;;;62.90;58.97;;;11.60;99.90;;;;;;4992827;28;20467;-70
2023/11/22 09:40:34;;;;;;;65.18;61.78;;;11.60;99.90;;;;;;4993338;28;20049;-70
2023/11/22 09:43:04;;;;;;;47.95;45.10;;;11.60;99.90;;;;;;4994957;28;20042;-70
2023/11/22 09:45:30;;;;;;;54.95;51.20;;;11.60;99.90;;;;;;4990358;28;20407;-70
2023/11/22 09:47:57;;;;;;;62.22;58.63;;;11.60;99.90;;;;;;4991106;28;20487;-70
2023/11/22 09:50:40;;;;;;;63.72;59.65;;;11.70;99.90;;;;;;4989057;28;20052;-70
2023/11/22 09:53:12;;;;;;;55.35;52.05;;;11.70;99.90;;;;;;4993743;28;20495;-70
2023/11/22 09:55:38;;;;;;;77.03;72.60;;;11.70;99.90;;;;;;4997801;28;20041;-70
2023/11/22 09:58:04;;;;;;;89.80;85.15;;;11.80;99.90;;;;;;5005658;28;20488;-70
2023/11/22 10:00:30;;;;;;;110.95;105.15;;;11.80;99.90;;;;;;4994822;28;20045;-70
2023/11/22 10:02:57;;;;;;;128.63;122.10;;;11.70;99.90;;;;;;5011792;28;20459;-70
2023/11/22 10:05:24;;;;;;;94.50;89.55;;;11.70;99.90;;;;;;4993269;28;20057;-70
2023/11/22 10:07:51;;;;;;;74.78;70.78;;;11.70;99.90;;;;;;4992212;28;20057;-70
2023/11/22 10:10:18;;;;;;;121.00;114.65;;;11.90;99.90;;;;;;4993276;28;20400;-70
2023/11/22 10:12:44;;;;;;;145.82;138.02;;;12.00;99.90;;;;;;4986341;28;20043;-70
2023/11/22 10:15:14;;;;;;;136.27;129.10;;;12.00;99.90;;;;;;4961943;28;20034;-70
2023/11/22 10:17:40;;;;;;;137.20;130.10;;;12.10;99.90;;;;;;4995093;28;20022;-70
2023/11/22 10:20:11;;;;;;;134.20;127.05;;;12.10;99.90;;;;;;5005361;28;20034;-70
2023/11/22 10:22:47;;;;;;;147.68;139.90;;;12.10;99.90;;;;;;4973817;28;20035;-69
2023/11/22 10:25:19;;;;;;;120.32;113.80;;;12.00;99.90;;;;;;4989957;28;20045;-69
2023/11/22 10:27:46;;;;;;;117.68;111.60;;;12.00;99.90;;;;;;4993076;28;20042;-70
2023/11/22 10:30:14;;;;;;;229.48;217.77;;;12.10;99.90;;;;;;4992060;28;20388;-70
2023/11/22 10:32:42;;;;;;;260.77;247.35;;;12.20;99.90;;;;;;5011715;28;20050;-70
2023/11/22 10:35:08;;;;;;;262.10;248.40;;;12.30;99.90;;;;;;4998899;28;20415;-70
2023/11/22 10:37:35;;;;;;;296.55;281.00;;;12.20;99.90;;;;;;4992641;28;20053;-70
2023/11/22 10:40:04;;;;;;;155.85;148.20;;;12.20;99.90;;;;;;4983206;28;20035;-70
2023/11/22 10:42:30;;;;;;;203.40;193.00;;;12.20;99.90;;;;;;4993284;28;20042;-69
2023/11/22 10:45:02;;;;;;;177.07;168.15;;;12.20;99.90;;;;;;4992292;28;20376;-70
2023/11/22 10:47:29;;;;;;;269.83;256.02;;;12.30;99.90;;;;;;4988810;28;20042;-70
2023/11/22 10:49:56;;;;;;;192.82;183.38;;;12.40;99.90;;;;;;4986337;28;20034;-70
2023/11/22 10:52:22;;;;;;;197.90;187.90;;;12.40;99.90;;;;;;4982744;28;20410;-73
2023/11/22 10:54:52;;;;;;;175.90;167.15;;;12.50;99.90;;;;;;4975332;28;20035;-73
2023/11/22 10:57:19;;;;;;;161.23;153.20;;;12.40;99.90;;;;;;4982013;28;20030;-74
2023/11/22 10:59:48;;;;;;;169.43;160.88;;;12.40;99.90;;;;;;4983976;28;20054;-73
2023/11/22 11:02:15;;;;;;;139.43;132.40;;;12.30;99.90;;;;;;4983695;28;20050;-74
2023/11/22 11:04:45;;;;;;;139.25;132.35;;;12.40;99.90;;;;;;4974122;28;20037;-74
2023/11/22 11:07:15;;;;;;;148.32;140.75;;;12.30;99.90;;;;;;4972696;28;20038;-73
2023/11/22 11:09:41;;;;;;;122.90;116.85;;;12.30;99.90;;;;;;4983504;28;20043;-72
2023/11/22 11:12:07;;;;;;;160.23;152.05;;;12.30;99.90;;;;;;4987408;28;20034;-73
2023/11/22 11:14:34;;;;;;;163.18;154.93;;;12.30;99.90;;;;;;4990808;28;20034;-73
2023/11/22 11:17:00;;;;;;;146.98;139.63;;;12.30;99.90;;;;;;4992071;28;20049;-73
2023/11/22 11:19:27;;;;;;;176.00;167.15;;;12.40;99.90;;;;;;4990896;28;20443;-74
2023/11/22 11:21:57;;;;;;;141.98;134.85;;;12.50;99.90;;;;;;4979810;28;20041;-73
2023/11/22 11:24:23;;;;;;;157.45;149.40;;;12.50;99.90;;;;;;4984587;28;20037;-73
2023/11/22 11:26:52;;;;;;;120.30;113.93;;;12.50;99.90;;;;;;4990068;28;20034;-74
2023/11/22 11:29:36;;;;;;;238.85;226.77;;;12.60;99.90;;;;;;4989517;28;20053;-73
2023/11/22 11:32:03;;;;;;;137.75;130.52;;;12.70;99.90;;;;;;4991316;28;20042;-74
2023/11/22 11:34:29;;;;;;;148.32;140.50;;;12.80;99.90;;;;;;4977307;28;20023;-74
2023/11/22 11:36:56;;;;;;;133.40;126.65;;;12.80;99.90;;;;;;4986853;28;20030;-74
2023/11/22 11:39:30;;;;;;;1070.75;567.08;;;12.90;99.90;;;;;;4973841;28;20046;-73
2023/11/22 11:42:09;;;;;;;1540.70;788.58;;;12.90;99.90;;;;;;4985433;28;20053;-74
2023/11/22 11:44:35;;;;;;;91.22;86.53;;;13.10;99.90;;;;;;4991328;28;20037;-74
2023/11/22 11:47:11;;;;;;;128.45;121.70;;;12.80;99.90;;;;;;4990840;28;20034;-73
2023/11/22 11:49:39;;;;;;;133.15;126.38;;;12.90;99.90;;;;;;4973798;28;20519;-73
2023/11/22 11:52:05;;;;;;;1999.90;999.90;;;13.00;99.90;;;;;;4988903;28;20042;-74
2023/11/22 11:54:31;;;;;;;1999.90;999.90;;;13.10;99.90;;;;;;4992583;28;20033;-73
2023/11/22 11:57:00;;;;;;;1999.90;999.90;;;13.10;99.90;;;;;;5006243;28;20049;-73
2023/11/22 11:59:26;;;;;;;1999.90;999.90;;;13.10;99.90;;;;;;4992710;28;20034;-73
2023/11/22 12:01:55;;;;;;;1999.90;999.90;;;12.90;99.90;;;;;;4989588;28;20038;-73
2023/11/22 12:04:23;;;;;;;1999.90;999.90;;;12.90;99.90;;;;;;4977969;28;20043;-69
2023/11/22 12:06:51;;;;;;;1999.90;999.90;;;12.90;99.90;;;;;;5003706;28;20042;-69
2023/11/22 12:09:25;;;;;;;1999.90;999.90;;;12.90;99.90;;;;;;4994000;28;20058;-69
2023/11/22 12:11:53;;;;;;;1999.90;999.90;;;12.90;99.90;;;;;;4984175;28;20030;-69
2023/11/22 12:14:20;;;;;;;1999.90;999.90;;;13.00;99.90;;;;;;4992849;28;20046;-69
2023/11/22 12:16:48;;;;;;;1999.90;999.90;;;13.00;99.90;;;;;;4991631;28;20034;-69
2023/11/22 12:19:24;;;;;;;1999.90;999.90;;;12.90;99.90;;;;;;4990693;28;20440;-69
2023/11/22 12:21:50;;;;;;;1999.90;999.90;;;12.90;99.90;;;;;;4992396;28;20030;-69